Weather at Sitia Airport

Public forecast

Using degrees Celsius for public forecast. Weather courtesy of forecast.io.

Closest aviation weather report (METAR) to Sitia Airport

Report is more than 6 hours old.

Closest report is Heraklion International Nikos Kazantzakis Airport, 45.7 nm (84.7 km) W.

2022/11/14 15:20 (retrieved 2 years ago)

LGIR 141520Z 32011KT 9999 FEW020 SCT025 18/12 Q1021 NOSIG

Closest aviation forecast (TAF) to Sitia Airport

Forecast is more than 12 hours old.

Closest forecast is Heraklion International Nikos Kazantzakis Airport, 45.7 nm (84.7 km) W.

2023/02/22 18:13 (retrieved 1 year ago)

TAF LGIR 221700Z 2218/2318 VRB05KT 9999 SCT020 TEMPO 2218/2306 FEW018 BKN025 PROB30 2224/2306 5000 BR SCT006